Time;durP1;ratioP1;P1;durP2;ratioP2;P2;SDS_P1;SDS_P2;PMS_P1;PMS_P2;Temp;Humidity;BMP_temperature;BMP_pressure;BME280_temperature;BME280_humidity;BME280_pressure;Samples;Min_cycle;Max_cycle;Signal;HPM_P1;HPM_P2
2023/12/24 00:00:13;;;;;;;;;32.00;27.40;;;;;4.03;59.47;98705.97;5069305;28;9020;-76
2023/12/24 00:02:42;;;;;;;;;24.00;21.40;;;;;4.15;58.47;98705.03;5066382;28;8870;-75
2023/12/24 00:05:12;;;;;;;;;27.60;24.20;;;;;3.92;58.21;98719.06;5070656;28;8835;-72
2023/12/24 00:07:41;;;;;;;;;34.00;30.80;;;;;3.78;58.62;98721.75;5078655;28;8877;-74
2023/12/24 00:10:10;;;;;;;;;26.00;21.40;;;;;4.20;58.47;98704.97;5067609;28;8876;-74
2023/12/24 00:12:39;;;;;;;;;23.40;20.60;;;;;4.50;57.61;98696.00;5032845;28;8971;-75
2023/12/24 00:15:09;;;;;;;;;25.80;25.00;;;;;4.73;56.80;98690.56;5049316;28;8855;-74
2023/12/24 00:17:39;;;;;;;;;24.00;21.20;;;;;4.92;56.50;98679.06;5056064;28;8869;-73
2023/12/24 00:20:09;;;;;;;;;24.80;24.20;;;;;4.95;56.36;98681.63;5058717;28;8885;-74
2023/12/24 00:22:38;;;;;;;;;23.20;22.60;;;;;5.04;55.59;98705.84;5062884;28;8887;-74
2023/12/24 00:25:06;;;;;;;;;20.80;20.80;;;;;4.69;55.89;98739.19;5063503;28;8874;-74
2023/12/24 00:27:35;;;;;;;;;25.20;21.60;;;;;4.02;58.46;98758.84;5068348;28;8866;-76
2023/12/24 00:30:05;;;;;;;;;19.00;19.00;;;;;3.88;59.04;98763.28;5063289;28;8845;-75
2023/12/24 00:32:34;;;;;;;;;22.80;21.80;;;;;3.17;61.59;98758.41;5063255;28;8962;-74
2023/12/24 00:35:06;;;;;;;;;18.00;16.20;;;;;3.11;62.51;98748.03;5046587;28;8923;-75
2023/12/24 00:37:34;;;;;;;;;21.40;17.40;;;;;3.08;62.59;98748.91;5012718;28;8942;-74
2023/12/24 00:40:04;;;;;;;;;19.80;16.40;;;;;2.93;63.63;98756.75;5048156;28;8857;-75
2023/12/24 00:42:34;;;;;;;;;19.80;15.20;;;;;3.07;63.36;98772.28;5036623;28;8858;-75
2023/12/24 00:45:06;;;;;;;;;17.40;15.00;;;;;3.36;63.06;98777.38;5067974;28;8839;-76
2023/12/24 00:47:35;;;;;;;;;13.00;12.20;;;;;3.12;63.88;98784.38;5066807;28;8858;-77
2023/12/24 00:50:07;;;;;;;;;14.60;14.40;;;;;3.05;63.69;98795.66;5067106;28;8877;-75
2023/12/24 00:52:37;;;;;;;;;14.60;14.00;;;;;3.11;63.83;98789.56;5058521;28;8833;-75
2023/12/24 00:55:06;;;;;;;;;19.80;15.00;;;;;3.34;63.62;98781.72;5048020;28;8898;-75
2023/12/24 00:57:37;;;;;;;;;15.20;15.20;;;;;3.66;62.73;98778.13;5063291;28;8899;-74
2023/12/24 01:00:07;;;;;;;;;18.00;15.60;;;;;3.40;63.21;98792.94;5077588;28;8823;-74
2023/12/24 01:02:37;;;;;;;;;17.20;16.00;;;;;3.84;61.14;98787.56;5067224;28;8858;-74
2023/12/24 01:05:09;;;;;;;;;12.20;12.20;;;;;3.69;62.02;98781.56;5074601;28;8846;-73
2023/12/24 01:07:38;;;;;;;;;11.80;11.60;;;;;3.70;62.29;98782.47;5085252;28;8891;-76
2023/12/24 01:10:08;;;;;;;;;14.20;13.60;;;;;4.22;61.15;98787.31;5033574;28;9674;-75
2023/12/24 01:12:37;;;;;;;;;14.60;13.80;;;;;4.58;60.87;98777.47;5033674;28;8946;-73
2023/12/24 01:15:07;;;;;;;;;14.20;14.20;;;;;4.82;59.33;98791.16;5066750;28;8853;-75
2023/12/24 01:17:36;;;;;;;;;12.60;12.60;;;;;5.00;58.66;98806.59;4976283;28;8858;-76
2023/12/24 01:20:14;;;;;;;;;12.60;12.60;;;;;5.26;58.09;98818.47;4992751;28;8866;-74
2023/12/24 01:22:44;;;;;;;;;20.20;19.20;;;;;5.32;57.74;98816.72;4999092;28;8836;-74
2023/12/24 01:25:13;;;;;;;;;22.20;20.20;;;;;5.38;56.65;98831.41;5028666;28;9698;-74
2023/12/24 01:27:42;;;;;;;;;20.20;17.80;;;;;5.38;56.83;98835.75;5028326;28;8877;-73
2023/12/24 01:30:12;;;;;;;;;23.80;23.60;;;;;5.15;57.29;98837.69;4995720;28;8872;-74
2023/12/24 01:32:41;;;;;;;;;35.00;29.00;;;;;5.32;57.18;98821.91;4995243;28;8845;-74
2023/12/24 01:35:10;;;;;;;;;29.80;27.00;;;;;5.28;56.36;98827.13;5011980;28;8849;-74
2023/12/24 01:37:40;;;;;;;;;31.80;29.00;;;;;5.44;56.55;98841.75;5005442;28;8862;-76
2023/12/24 01:40:11;;;;;;;;;28.00;25.20;;;;;5.49;56.23;98824.34;4992328;28;9663;-75
2023/12/24 01:42:43;;;;;;;;;27.20;26.40;;;;;5.57;56.03;98826.84;5008748;28;8842;-73
2023/12/24 01:45:14;;;;;;;;;28.40;25.80;;;;;5.66;56.21;98824.13;4992366;28;8866;-73
2023/12/24 01:47:44;;;;;;;;;25.80;22.20;;;;;5.65;55.25;98860.66;5028013;28;8987;-73
2023/12/24 01:50:20;;;;;;;;;25.40;21.80;;;;;5.71;55.16;98865.78;5069679;28;8963;-73
2023/12/24 01:52:51;;;;;;;;;17.00;17.00;;;;;5.80;55.42;98860.44;5063786;28;8868;-73
2023/12/24 01:55:21;;;;;;;;;24.60;23.60;;;;;5.85;55.16;98852.56;5049304;28;9011;-74
2023/12/24 01:57:50;;;;;;;;;22.40;19.80;;;;;5.63;55.46;98867.63;5065935;28;8853;-74
2023/12/24 02:00:19;;;;;;;;;16.80;15.60;;;;;5.62;55.43;98878.91;5066310;28;8837;-72
2023/12/24 02:02:51;;;;;;;;;21.40;18.00;;;;;5.60;54.81;98899.78;5065811;28;8856;-76
2023/12/24 02:05:21;;;;;;;;;17.80;17.60;;;;;5.56;55.70;98898.09;5065941;28;8879;-72
2023/12/24 02:07:52;;;;;;;;;20.80;19.40;;;;;5.65;55.32;98899.75;5080372;28;8846;-74
2023/12/24 02:10:24;;;;;;;;;18.00;15.60;;;;;5.68;55.27;98903.19;5052074;28;8861;-73
2023/12/24 02:12:53;;;;;;;;;16.80;15.80;;;;;5.77;55.46;98927.44;5085829;28;8866;-74
2023/12/24 02:15:23;;;;;;;;;15.20;14.00;;;;;5.85;54.82;98936.91;5069141;28;8873;-73
2023/12/24 02:17:53;;;;;;;;;11.80;11.80;;;;;5.91;55.02;98928.16;5085230;28;8850;-75
2023/12/24 02:20:25;;;;;;;;;14.00;14.00;;;;;6.01;54.89;98921.06;5084179;28;8851;-76
2023/12/24 02:22:56;;;;;;;;;12.60;12.60;;;;;6.14;54.37;98924.38;5051120;28;8855;-74
2023/12/24 02:25:27;;;;;;;;;16.80;15.40;;;;;6.17;55.09;98913.88;5035594;28;9636;-75
2023/12/24 02:28:02;;;;;;;;;17.60;16.40;;;;;6.27;53.95;98920.72;5085690;28;8854;-77
2023/12/24 02:30:34;;;;;;;;;13.20;13.20;;;;;6.31;54.37;98918.03;5072168;28;8947;-74
2023/12/24 02:33:07;;;;;;;;;17.40;15.20;;;;;6.35;54.33;98918.03;5069996;28;8869;-75
2023/12/24 02:35:39;;;;;;;;;14.80;13.40;;;;;6.42;53.57;98915.28;5051008;28;8869;-75
2023/12/24 02:38:09;;;;;;;;;16.20;12.60;;;;;6.48;53.82;98904.75;5068031;28;8890;-76
2023/12/24 02:40:39;;;;;;;;;13.00;12.20;;;;;6.49;54.19;98893.44;5051106;28;8854;-76
2023/12/24 02:43:08;;;;;;;;;13.20;13.00;;;;;6.26;53.47;98892.91;5018315;28;9012;-74
2023/12/24 02:45:39;;;;;;;;;15.20;15.20;;;;;6.31;53.45;98891.94;5069944;28;8862;-74
2023/12/24 02:48:08;;;;;;;;;14.40;12.80;;;;;6.34;53.41;98891.03;5068396;28;8902;-74
2023/12/24 02:50:38;;;;;;;;;14.60;12.60;;;;;6.14;53.71;98875.66;5068526;28;8851;-74
2023/12/24 02:53:07;;;;;;;;;17.00;16.40;;;;;6.20;54.00;98875.56;5029441;28;8923;-73
2023/12/24 02:55:37;;;;;;;;;23.00;17.80;;;;;6.23;53.49;98874.69;5048145;28;8832;-74
2023/12/24 02:58:06;;;;;;;;;18.00;16.80;;;;;6.01;54.38;98880.19;5052435;28;8997;-73
2023/12/24 03:00:35;;;;;;;;;17.00;13.60;;;;;6.14;54.40;98895.69;5051127;28;8958;-73
2023/12/24 03:03:04;;;;;;;;;22.60;18.00;;;;;6.07;54.19;98897.50;4997571;28;8839;-74
2023/12/24 03:05:34;;;;;;;;;16.60;16.40;;;;;6.05;54.61;98886.22;5046701;28;8989;-74
2023/12/24 03:08:04;;;;;;;;;0.80;0.00;;;;;5.86;55.08;98881.22;5045424;28;8838;-73
2023/12/24 03:10:33;;;;;;;;;21.40;18.60;;;;;5.96;54.90;98881.13;5000614;28;8901;-74
2023/12/24 03:13:04;;;;;;;;;23.20;21.60;;;;;5.91;53.86;98881.19;5051114;28;8928;-75
2023/12/24 03:15:33;;;;;;;;;18.00;18.00;;;;;5.50;54.75;98878.19;5030755;28;8846;-72
2023/12/24 03:18:02;;;;;;;;;17.60;17.20;;;;;5.37;55.29;98886.16;5029627;28;9087;-73
2023/12/24 03:20:31;;;;;;;;;18.20;15.00;;;;;5.23;55.92;98881.06;5046288;28;8858;-75
2023/12/24 03:23:00;;;;;;;;;16.80;16.00;;;;;5.29;55.65;98873.16;5030091;28;8854;-73
2023/12/24 03:25:29;;;;;;;;;14.60;14.20;;;;;5.39;55.94;98879.19;5013735;28;8866;-73
2023/12/24 03:27:58;;;;;;;;;11.00;11.00;;;;;5.50;56.03;98885.13;5046554;28;9653;-74
2023/12/24 03:30:28;;;;;;;;;14.40;13.60;;;;;5.63;54.57;98878.06;5007757;28;8951;-73
2023/12/24 03:32:57;;;;;;;;;12.00;12.00;;;;;5.46;55.37;98868.66;5056180;28;8904;-74
2023/12/24 03:35:26;;;;;;;;;16.00;15.40;;;;;5.64;54.64;98874.53;5064407;28;8849;-75
2023/12/24 03:37:55;;;;;;;;;20.80;15.80;;;;;5.84;54.52;98869.97;5048367;28;8881;-73
2023/12/24 03:40:24;;;;;;;;;13.00;11.60;;;;;5.99;55.08;98871.50;5033335;28;8863;-73
2023/12/24 03:42:54;;;;;;;;;15.80;15.00;;;;;6.19;54.44;98866.03;5084402;28;9001;-74
2023/12/24 03:45:23;;;;;;;;;17.20;15.80;;;;;6.38;53.75;98889.25;5084564;28;8850;-73
2023/12/24 03:47:53;;;;;;;;;18.40;17.40;;;;;6.49;53.19;98885.59;5068776;28;8884;-74
2023/12/24 03:50:23;;;;;;;;;24.60;20.80;;;;;6.48;53.34;98886.47;5068483;28;8858;-73
2023/12/24 03:52:52;;;;;;;;;17.40;17.40;;;;;6.54;52.61;98884.66;5068476;28;8858;-74
2023/12/24 03:55:22;;;;;;;;;20.00;18.40;;;;;6.58;53.91;98879.38;5062494;28;8867;-75
2023/12/24 03:57:51;;;;;;;;;17.20;17.00;;;;;6.68;52.35;98875.75;5063825;28;8845;-74
2023/12/24 04:00:21;;;;;;;;;17.20;14.40;;;;;6.61;53.42;98873.25;5063549;28;8880;-75
2023/12/24 04:02:50;;;;;;;;;18.00;16.60;;;;;6.63;53.55;98888.00;5047180;28;8891;-74
2023/12/24 04:05:21;;;;;;;;;15.60;15.60;;;;;6.74;53.87;98897.41;5063545;28;8967;-76
2023/12/24 04:07:50;;;;;;;;;17.80;13.80;;;;;6.75;53.08;98888.69;5066518;28;8853;-74
2023/12/24 04:10:18;;;;;;;;;14.40;12.00;;;;;6.78;52.76;98878.22;5065971;28;8849;-74
2023/12/24 04:12:48;;;;;;;;;8.80;8.80;;;;;6.81;52.25;98876.38;5048503;28;8848;-75
2023/12/24 04:15:17;;;;;;;;;11.40;10.40;;;;;6.81;52.30;98883.38;5029644;28;8909;-73
2023/12/24 04:17:46;;;;;;;;;11.40;9.00;;;;;6.84;52.18;98884.19;5046686;28;8895;-73
2023/12/24 04:20:15;;;;;;;;;9.40;9.40;;;;;6.89;51.58;98892.84;5045586;28;8871;-73
2023/12/24 04:22:46;;;;;;;;;9.00;8.20;;;;;6.90;51.26;98894.56;5060316;28;8895;-76
2023/12/24 04:25:15;;;;;;;;;9.00;8.40;;;;;6.94;51.06;98894.50;5014802;28;8884;-75
2023/12/24 04:27:44;;;;;;;;;7.60;7.40;;;;;6.98;50.99;98875.28;5016063;28;8834;-74
2023/12/24 04:30:13;;;;;;;;;7.80;5.20;;;;;6.90;50.38;98870.19;5048484;28;8853;-74
2023/12/24 04:32:44;;;;;;;;;3.60;2.80;;;;;6.91;52.08;98874.53;5048717;28;8818;-74
2023/12/24 04:35:13;;;;;;;;;3.00;3.00;;;;;6.95;51.32;98872.75;5032207;28;9058;-74
2023/12/24 04:37:42;;;;;;;;;18.40;15.20;;;;;6.59;51.67;98868.06;5065514;28;8873;-74
2023/12/24 04:40:13;;;;;;;;;12.20;11.40;;;;;6.06;52.98;98865.34;5015146;28;8845;-74
2023/12/24 04:42:42;;;;;;;;;9.00;9.00;;;;;5.74;54.45;98863.16;5052397;28;8865;-72
2023/12/24 04:45:11;;;;;;;;;9.80;8.40;;;;;5.44;55.29;98860.00;5052946;28;8846;-75
2023/12/24 04:47:42;;;;;;;;;11.40;10.80;;;;;5.40;55.19;98873.09;5052609;28;8996;-74
2023/12/24 04:50:12;;;;;;;;;12.40;9.00;;;;;5.54;55.61;98866.81;5052794;28;8858;-77
2023/12/24 04:52:42;;;;;;;;;9.00;8.60;;;;;5.43;56.40;98876.50;5052798;28;8976;-73
2023/12/24 04:55:12;;;;;;;;;9.80;9.80;;;;;5.72;55.05;98872.72;5051444;28;8868;-73
2023/12/24 04:57:42;;;;;;;;;7.40;7.40;;;;;5.68;54.62;98873.63;5066612;28;9632;-73
2023/12/24 05:00:12;;;;;;;;;6.80;6.20;;;;;5.74;55.08;98870.97;5038978;28;8877;-74
2023/12/24 05:02:41;;;;;;;;;7.00;7.00;;;;;6.06;54.74;98867.09;5069202;28;9603;-75
2023/12/24 05:05:12;;;;;;;;;8.80;8.80;;;;;6.25;54.67;98875.53;5033981;28;8856;-73
2023/12/24 05:07:42;;;;;;;;;12.00;11.60;;;;;6.41;52.79;98876.16;5050362;28;8845;-74
2023/12/24 05:10:12;;;;;;;;;65.25;53.25;;;;;6.62;54.00;98874.97;5063912;28;8861;-74
2023/12/24 05:12:41;;;;;;;;;26.20;24.80;;;;;6.76;52.69;98885.19;5066582;28;8849;-73
2023/12/24 05:15:11;;;;;;;;;34.40;31.60;;;;;6.88;53.27;98882.38;5050033;28;8934;-75
2023/12/24 05:17:40;;;;;;;;;29.60;25.80;;;;;7.03;53.13;98889.13;5048503;28;8894;-73
2023/12/24 05:20:10;;;;;;;;;13.60;13.60;;;;;7.08;51.43;98890.78;5048527;28;8862;-75
2023/12/24 05:22:39;;;;;;;;;15.00;10.80;;;;;7.06;51.51;98909.97;5032209;28;8858;-75
2023/12/24 05:25:08;;;;;;;;;57.00;48.00;;;;;7.12;51.80;98909.00;5038902;28;8888;-73
2023/12/24 05:27:39;;;;;;;;;41.60;37.20;;;;;7.21;51.94;98896.66;5048720;28;8842;-75
2023/12/24 05:30:08;;;;;;;;;52.00;43.25;;;;;7.25;51.95;98894.88;5065367;28;8973;-74
2023/12/24 05:32:38;;;;;;;;;38.50;37.00;;;;;7.31;51.72;98897.34;5032980;28;8858;-75
2023/12/24 05:35:07;;;;;;;;;14.40;14.40;;;;;7.35;52.26;98896.41;5049082;28;8929;-75
2023/12/24 05:37:37;;;;;;;;;8.00;7.20;;;;;7.39;52.37;98905.06;5050282;28;8968;-75
2023/12/24 05:40:06;;;;;;;;;10.40;10.40;;;;;7.47;51.36;98914.47;5037694;28;8857;-73
2023/12/24 05:42:35;;;;;;;;;16.40;14.80;;;;;7.51;51.64;98914.44;5064956;28;8870;-73
2023/12/24 05:45:10;;;;;;;;;11.00;10.00;;;;;7.52;51.22;98916.16;5031231;28;8858;-74
2023/12/24 05:47:39;;;;;;;;;12.60;11.00;;;;;7.53;51.96;98916.13;5032475;28;8874;-76
2023/12/24 05:50:09;;;;;;;;;10.60;10.60;;;;;7.49;51.03;98906.59;5068471;28;8849;-75
2023/12/24 05:52:41;;;;;;;;;5.80;5.20;;;;;7.51;50.12;98898.72;5050694;28;8845;-75
2023/12/24 05:55:11;;;;;;;;;7.00;6.80;;;;;7.43;50.88;98897.13;5036507;28;8861;-72
2023/12/24 05:57:40;;;;;;;;;1.00;1.00;;;;;7.40;50.42;98886.75;5051414;28;8853;-74
2023/12/24 06:00:12;;;;;;;;;4.00;3.80;;;;;7.39;50.30;98892.84;5067036;28;8862;-73
2023/12/24 06:02:44;;;;;;;;;9.80;9.00;;;;;7.40;51.24;98878.88;5032696;28;8853;-74
2023/12/24 06:05:13;;;;;;;;;10.80;8.60;;;;;7.38;50.05;98875.44;5050432;28;8869;-75
2023/12/24 06:07:43;;;;;;;;;12.20;12.20;;;;;7.46;52.02;98868.31;5039539;28;8888;-73
2023/12/24 06:10:12;;;;;;;;;12.20;12.20;;;;;7.50;49.99;98855.19;5051768;28;8882;-72
2023/12/24 06:12:41;;;;;;;;;19.20;19.20;;;;;7.42;51.15;98858.81;5071277;28;8863;-72
2023/12/24 06:15:11;;;;;;;;;53.75;45.00;;;;;7.33;52.03;98866.81;5084449;28;8947;-74
2023/12/24 06:17:40;;;;;;;;;21.60;20.00;;;;;7.32;51.11;98864.22;5032734;28;8865;-74
2023/12/24 06:20:11;;;;;;;;;9.40;9.40;;;;;7.32;50.80;98877.31;5049031;28;8966;-73
2023/12/24 06:22:40;;;;;;;;;7.20;7.20;;;;;7.29;49.64;98886.06;5003147;28;8850;-74
2023/12/24 06:25:09;;;;;;;;;7.00;7.00;;;;;7.18;50.20;98891.47;5070527;28;8850;-74
2023/12/24 06:27:38;;;;;;;;;8.00;8.00;;;;;7.23;51.52;98888.78;5069224;28;8870;-75
2023/12/24 06:30:08;;;;;;;;;9.60;9.00;;;;;7.21;50.42;98882.72;5074501;28;8876;-74
2023/12/24 06:32:41;;;;;;;;;13.20;10.60;;;;;7.18;50.08;98878.41;5057901;28;8888;-74
2023/12/24 06:35:11;;;;;;;;;9.40;8.60;;;;;6.84;51.81;98885.94;5049963;28;9657;-76
2023/12/24 06:37:40;;;;;;;;;13.00;11.00;;;;;6.73;51.98;98880.03;5050193;28;8857;-72
2023/12/24 06:40:10;;;;;;;;;10.80;10.80;;;;;6.78;52.04;98873.84;5056586;28;8981;-74
2023/12/24 06:42:40;;;;;;;;;20.20;18.60;;;;;6.93;51.48;98867.53;5048358;28;8870;-73
2023/12/24 06:45:10;;;;;;;;;16.20;16.20;;;;;6.98;51.07;98847.38;5048216;28;8845;-73
2023/12/24 06:47:40;;;;;;;;;14.80;13.60;;;;;6.57;51.85;98843.72;5048460;28;8880;-73
2023/12/24 06:50:10;;;;;;;;;21.20;20.20;;;;;6.53;51.64;98844.66;5049818;28;8884;-74
2023/12/24 06:52:40;;;;;;;;;20.80;19.00;;;;;6.78;52.66;98852.09;5049518;28;9611;-75
2023/12/24 06:55:09;;;;;;;;;14.60;14.60;;;;;6.95;52.86;98842.25;5049532;28;8849;-76
2023/12/24 06:57:38;;;;;;;;;25.60;19.40;;;;;7.15;51.93;98851.47;5052657;28;8857;-73
2023/12/24 07:00:09;;;;;;;;;23.67;23.33;;;;;7.29;52.01;98850.31;5067773;28;8841;-76
2023/12/24 07:02:38;;;;;;;;;24.80;21.00;;;;;7.45;51.74;98840.41;5049785;28;9809;-76
2023/12/24 07:05:08;;;;;;;;;19.20;19.00;;;;;7.61;53.22;98824.44;5033041;28;8856;-74
2023/12/24 07:07:38;;;;;;;;;20.20;20.20;;;;;7.74;50.53;98801.50;5050654;28;9607;-77
2023/12/24 07:10:07;;;;;;;;;15.80;15.40;;;;;7.79;49.92;98799.66;5069615;28;8850;-76
2023/12/24 07:12:36;;;;;;;;;17.60;17.40;;;;;7.81;49.31;98803.09;5052409;28;8879;-74
2023/12/24 07:15:07;;;;;;;;;17.40;17.00;;;;;7.78;48.79;98800.53;5048373;28;9640;-76
2023/12/24 07:17:36;;;;;;;;;13.00;13.00;;;;;7.81;48.26;98816.16;5050393;28;8873;-75
2023/12/24 07:20:06;;;;;;;;;18.60;15.60;;;;;7.92;47.66;98801.09;5072634;28;8846;-74
2023/12/24 07:22:37;;;;;;;;;15.20;15.20;;;;;7.96;48.19;98796.66;5017404;28;9675;-76
2023/12/24 07:25:07;;;;;;;;;15.20;13.00;;;;;7.96;48.08;98825.44;5067718;28;8858;-76
2023/12/24 07:27:36;;;;;;;;;19.40;19.00;;;;;8.03;47.53;98853.22;4983794;28;8864;-74
2023/12/24 07:30:06;;;;;;;;;22.00;19.60;;;;;7.95;47.08;98883.91;5026610;28;9637;-74
2023/12/24 07:32:35;;;;;;;;;36.20;31.60;;;;;7.29;50.34;98899.16;5026361;28;8872;-75
2023/12/24 07:35:05;;;;;;;;;33.00;29.60;;;;;7.68;50.05;98901.88;5042996;28;8898;-75
2023/12/24 07:37:34;;;;;;;;;34.60;32.40;;;;;7.84;50.21;98892.00;4994063;28;8877;-76
2023/12/24 07:40:06;;;;;;;;;30.20;28.60;;;;;7.96;50.28;98894.34;5010109;28;8877;-74
2023/12/24 07:42:35;;;;;;;;;25.60;25.00;;;;;8.03;49.92;98898.56;4996446;28;9636;-76
2023/12/24 07:45:05;;;;;;;;;24.00;24.00;;;;;8.13;50.07;98912.31;4974677;28;8882;-78
2023/12/24 07:47:34;;;;;;;;;32.60;31.00;;;;;8.13;49.95;98914.94;4975138;28;8898;-76
2023/12/24 07:50:03;;;;;;;;;32.40;28.40;;;;;8.04;49.97;98920.34;5008511;28;8996;-76
2023/12/24 07:52:33;;;;;;;;;33.40;32.80;;;;;8.03;49.27;98918.66;4993843;28;9008;-74
2023/12/24 07:55:02;;;;;;;;;33.20;33.00;;;;;7.92;49.49;98910.16;5026018;28;8911;-73
2023/12/24 07:57:32;;;;;;;;;39.60;35.40;;;;;7.57;49.02;98924.75;5023852;28;8833;-75
2023/12/24 08:00:01;;;;;;;;;37.80;36.40;;;;;7.51;50.37;98930.13;5018538;28;8848;-73
2023/12/24 08:02:40;;;;;;;;;44.25;37.00;;;;;7.78;50.42;98932.22;5006020;28;8957;-74
2023/12/24 08:05:10;;;;;;;;;45.75;40.75;;;;;7.94;51.00;98924.91;5006174;28;8858;-74
2023/12/24 08:07:39;;;;;;;;;57.25;47.50;;;;;8.12;50.54;98915.84;4989652;28;8877;-76
2023/12/24 08:10:09;;;;;;;;;48.75;41.25;;;;;8.20;50.24;98911.28;5006920;28;9723;-74
2023/12/24 08:12:39;;;;;;;;;42.50;37.50;;;;;8.35;50.08;98904.91;5025781;28;8905;-76
2023/12/24 08:15:08;;;;;;;;;39.60;34.80;;;;;8.44;48.63;98907.31;5009405;28;8989;-75
2023/12/24 08:17:39;;;;;;;;;45.00;38.50;;;;;8.48;49.93;98904.59;5024966;28;10009;-76
2023/12/24 08:20:11;;;;;;;;;56.50;46.75;;;;;8.59;49.92;98916.59;5025479;28;8871;-75
2023/12/24 08:22:40;;;;;;;;;58.00;47.25;;;;;8.68;49.35;98919.88;4992963;28;8871;-76
2023/12/24 08:25:09;;;;;;;;;54.50;45.75;;;;;8.77;49.73;98931.00;4992677;28;8848;-76
2023/12/24 08:27:40;;;;;;;;;64.25;51.00;;;;;8.77;49.37;98930.16;4993002;28;9645;-77
2023/12/24 08:30:10;;;;;;;;;58.25;48.50;;;;;8.69;48.83;98948.66;5027315;28;8876;-76
2023/12/24 08:32:39;;;;;;;;;54.50;45.50;;;;;8.57;49.25;98954.16;5047907;28;8896;-76
2023/12/24 08:35:10;;;;;;;;;59.25;48.75;;;;;8.38;49.60;98957.22;5066666;28;8876;-76
2023/12/24 08:37:40;;;;;;;;;66.50;53.50;;;;;8.50;50.61;98956.09;5073322;28;8889;-76
2023/12/24 08:40:09;;;;;;;;;60.75;50.00;;;;;8.47;49.06;98966.63;5087413;28;8913;-77
2023/12/24 08:42:40;;;;;;;;;67.00;51.75;;;;;8.61;49.17;98958.44;5061559;28;8869;-79
2023/12/24 08:45:09;;;;;;;;;58.00;46.00;;;;;8.68;48.53;98970.50;5046656;28;8950;-76
2023/12/24 08:47:39;;;;;;;;;62.25;48.25;;;;;8.75;48.72;98955.53;5046468;28;8864;-78
2023/12/24 08:50:08;;;;;;;;;62.25;48.75;;;;;8.83;48.15;98948.34;5068058;28;8863;-76
2023/12/24 08:52:37;;;;;;;;;51.00;42.25;;;;;8.89;47.63;98940.31;5066374;28;8850;-79
2023/12/24 08:55:07;;;;;;;;;46.25;41.00;;;;;8.93;47.62;98942.00;5048277;28;8853;-75
2023/12/24 08:57:36;;;;;;;;;45.50;37.00;;;;;9.01;47.71;98931.34;5047307;28;8900;-78
2023/12/24 09:00:11;;;;;;;;;45.50;40.00;;;;;9.04;46.40;98945.22;5064848;28;10089;-78
2023/12/24 09:02:40;;;;;;;;;51.75;42.75;;;;;9.21;46.87;98952.69;5017511;28;8869;-78
2023/12/24 09:05:09;;;;;;;;;57.00;46.50;;;;;8.69;46.29;98951.28;5064758;28;8853;-76
2023/12/24 09:07:39;;;;;;;;;58.00;46.75;;;;;8.96;47.38;98948.91;5048145;28;9657;-78
2023/12/24 09:10:08;;;;;;;;;60.75;50.50;;;;;9.11;46.97;98947.69;5064895;28;8825;-77
2023/12/24 09:12:37;;;;;;;;;60.75;50.00;;;;;9.24;47.22;98944.72;5015045;28;8845;-77
2023/12/24 09:15:09;;;;;;;;;60.00;49.25;;;;;9.45;47.44;98954.72;5031534;28;8982;-76
2023/12/24 09:17:38;;;;;;;;;57.50;48.25;;;;;9.60;47.45;98947.31;5048684;28;8889;-77
2023/12/24 09:20:08;;;;;;;;;55.00;46.00;;;;;9.76;46.22;98945.16;5048508;28;8900;-77
2023/12/24 09:22:37;;;;;;;;;55.50;43.75;;;;;9.93;46.33;98944.69;4958142;28;8956;-75
2023/12/24 09:25:08;;;;;;;;;53.00;44.50;;;;;10.08;45.77;98930.25;5005751;28;8840;-77
2023/12/24 09:27:37;;;;;;;;;53.50;44.25;;;;;10.28;45.63;98931.44;4990827;28;8934;-76
2023/12/24 09:30:08;;;;;;;;;63.25;49.00;;;;;10.40;46.46;98937.16;4998054;28;8872;-76
2023/12/24 09:32:38;;;;;;;;;55.50;45.25;;;;;10.54;45.21;98935.94;4999846;28;8992;-77
2023/12/24 09:35:08;;;;;;;;;60.75;48.00;;;;;10.61;44.61;98929.53;5001235;28;8912;-78
2023/12/24 09:37:37;;;;;;;;;54.00;45.00;;;;;10.59;43.95;98927.00;4997544;28;8875;-76
2023/12/24 09:40:08;;;;;;;;;60.00;48.50;;;;;10.53;43.92;98921.91;5008072;28;8855;-75
2023/12/24 09:42:38;;;;;;;;;59.00;49.00;;;;;10.70;45.88;98910.00;4968369;28;8870;-76
2023/12/24 09:45:09;;;;;;;;;69.00;54.00;;;;;10.73;45.00;98918.69;5001628;28;8965;-77
2023/12/24 09:47:40;;;;;;;;;69.25;55.75;;;;;10.86;45.11;98913.91;5008618;28;9620;-77
2023/12/24 09:50:09;;;;;;;;;61.00;49.25;;;;;11.02;45.40;98916.88;5024438;28;8863;-78
2023/12/24 09:52:39;;;;;;;;;72.33;58.33;;;;;10.98;43.53;98920.53;5008201;28;8854;-75
2023/12/24 09:55:08;;;;;;;;;67.25;54.00;;;;;11.12;44.12;98915.69;4995942;28;8948;-78
2023/12/24 09:57:40;;;;;;;;;68.25;55.50;;;;;11.21;42.36;98918.91;4991910;28;8862;-76
2023/12/24 10:00:12;;;;;;;;;71.50;58.00;;;;;10.92;42.82;98924.22;4996003;28;8874;-76
2023/12/24 10:02:41;;;;;;;;;49.00;42.25;;;;;10.99;43.42;98930.13;5015709;28;8858;-78
2023/12/24 10:05:13;;;;;;;;;63.25;48.75;;;;;10.79;42.17;98936.91;5040857;28;8869;-76
2023/12/24 10:07:45;;;;;;;;;58.00;47.00;;;;;11.07;42.98;98936.03;5045373;28;8876;-78
2023/12/24 10:10:14;;;;;;;;;46.75;38.25;;;;;11.15;41.85;98935.75;5041454;28;8838;-78
2023/12/24 10:12:44;;;;;;;;;61.00;48.50;;;;;11.33;42.15;98932.53;5046769;28;8866;-79
2023/12/24 10:15:20;;;;;;;;;52.50;44.25;;;;;11.49;42.29;98930.22;5009543;28;8916;-79
2023/12/24 10:17:49;;;;;;;;;45.50;37.25;;;;;11.63;42.65;98929.72;4996816;28;8986;-78
2023/12/24 10:20:18;;;;;;;;;42.00;37.00;;;;;11.72;41.95;98918.00;5041316;28;8858;-76
2023/12/24 10:22:47;;;;;;;;;43.75;37.50;;;;;11.58;40.88;98910.63;5049614;28;8998;-79
2023/12/24 10:25:18;;;;;;;;;38.50;33.50;;;;;11.85;42.05;98914.06;5048037;28;8834;-79
2023/12/24 10:27:48;;;;;;;;;47.00;37.75;;;;;11.90;41.06;98916.50;5014360;28;8853;-76
2023/12/24 10:30:19;;;;;;;;;50.00;42.00;;;;;11.79;41.22;98910.78;5041668;28;8875;-78
2023/12/24 10:32:48;;;;;;;;;49.75;42.00;;;;;12.00;41.51;98901.25;5011166;28;8866;-77
2023/12/24 10:35:22;;;;;;;;;51.50;43.25;;;;;12.23;41.45;98906.50;5027615;28;8938;-78
2023/12/24 10:37:51;;;;;;;;;58.00;48.75;;;;;12.09;40.76;98911.44;5027636;28;9004;-77
2023/12/24 10:40:20;;;;;;;;;53.50;44.00;;;;;12.00;40.20;98906.53;5027307;28;8864;-77
2023/12/24 10:42:49;;;;;;;;;56.50;45.75;;;;;11.38;41.62;98909.53;5028838;28;8895;-79
2023/12/24 10:45:20;;;;;;;;;54.00;45.00;;;;;11.62;41.17;98909.59;5038613;28;8945;-76
2023/12/24 10:47:49;;;;;;;;;50.25;39.75;;;;;11.88;41.24;98897.28;5049282;28;8880;-79
2023/12/24 10:50:20;;;;;;;;;45.75;39.50;;;;;12.06;41.36;98896.59;5015851;28;8899;-79
2023/12/24 10:52:50;;;;;;;;;45.00;38.50;;;;;12.22;42.19;98896.91;5015668;28;8930;-79
2023/12/24 10:55:21;;;;;;;;;53.50;43.25;;;;;12.39;41.60;98909.44;5053542;28;8951;-77
2023/12/24 10:57:59;;;;;;;;;48.75;40.75;;;;;12.27;40.09;98905.47;5057865;28;8845;-78
2023/12/24 11:00:30;;;;;;;;;52.25;42.75;;;;;12.38;40.83;98897.16;5037899;28;8910;-76
2023/12/24 11:02:59;;;;;;;;;49.25;39.00;;;;;12.51;40.38;98897.53;5028901;28;8876;-77
2023/12/24 11:05:51;;;;;;;;;58.00;47.50;;;;;12.79;41.39;98897.28;4996261;28;8856;-76
2023/12/24 11:08:31;;;;;;;;;53.00;45.25;;;;;12.85;41.59;98898.84;4992656;28;8925;-78
2023/12/24 11:11:04;;;;;;;;;58.25;46.75;;;;;12.78;40.74;98892.94;4996693;28;8857;-77
2023/12/24 11:13:57;;;;;;;;;55.75;45.00;;;;;12.98;40.53;98886.88;5014190;28;9641;-77
2023/12/24 11:16:41;;;;;;;;;54.50;44.50;;;;;12.96;40.94;98888.72;4915342;28;9753;-77
2023/12/24 11:19:25;;;;;;;;;56.50;47.00;;;;;12.97;41.17;98889.56;4948477;28;8872;-78
2023/12/24 11:22:09;;;;;;;;;56.75;47.25;;;;;12.99;40.82;98895.66;4948612;28;8943;-78
2023/12/24 11:24:43;;;;;;;;;57.00;46.75;;;;;12.82;40.48;98897.16;4948578;28;8876;-78
2023/12/24 11:27:22;;;;;;;;;61.50;47.00;;;;;12.81;40.63;98898.09;4948718;28;8926;-79
2023/12/24 11:29:52;;;;;;;;;59.75;49.00;;;;;12.76;40.40;98897.41;4948462;28;9007;-77
2023/12/24 11:32:39;;;;;;;;;62.50;50.75;;;;;12.77;40.83;98883.31;4947059;28;8856;-79
2023/12/24 11:35:08;;;;;;;;;66.25;53.00;;;;;12.60;41.28;98886.63;4949330;28;8849;-77
2023/12/24 11:37:39;;;;;;;;;60.50;49.00;;;;;12.52;40.46;98896.59;4955546;28;8865;-78
2023/12/24 11:40:12;;;;;;;;;63.50;51.00;;;;;12.52;41.25;98897.47;4986849;28;8994;-80
2023/12/24 11:42:42;;;;;;;;;65.75;53.50;;;;;12.53;41.85;98896.53;4986897;28;8885;-77
2023/12/24 11:45:20;;;;;;;;;61.00;49.50;;;;;12.67;41.92;98905.69;4985022;28;9002;-78
2023/12/24 11:47:51;;;;;;;;;66.00;52.75;;;;;12.59;41.16;98911.25;4967419;28;10214;-77